createdAt,value
2022-08-27T00:00:45.321Z,14.81
2022-08-27T00:03:48.162Z,14.85
2022-08-27T00:06:51.154Z,14.83
2022-08-27T00:09:53.988Z,14.75
2022-08-27T00:12:57.196Z,14.81
2022-08-27T00:16:00.081Z,14.78
2022-08-27T00:19:04.484Z,14.76
2022-08-27T00:22:09.219Z,14.79
2022-08-27T00:25:12.913Z,14.81
2022-08-27T00:28:15.814Z,14.75
2022-08-27T00:31:19.166Z,14.69
2022-08-27T00:34:26.532Z,14.71
2022-08-27T00:37:29.593Z,14.68
2022-08-27T00:40:33.647Z,14.65
2022-08-27T00:43:48.954Z,14.57
2022-08-27T00:46:56.440Z,14.57
2022-08-27T00:50:05.728Z,14.52
2022-08-27T00:53:19.776Z,14.59
2022-08-27T00:56:27.350Z,14.64
2022-08-27T00:59:32.833Z,14.64
2022-08-27T01:02:36.319Z,14.58
2022-08-27T01:05:39.948Z,14.49
2022-08-27T01:08:50.461Z,14.51
2022-08-27T01:11:56.047Z,14.48
2022-08-27T01:15:01.051Z,14.44
2022-08-27T01:18:06.480Z,14.51
2022-08-27T01:21:22.463Z,14.58
2022-08-27T01:24:31.712Z,14.51
2022-08-27T01:27:35.541Z,14.38
2022-08-27T01:30:40.308Z,14.44
2022-08-27T01:33:58.698Z,14.42
2022-08-27T01:37:01.578Z,14.46
2022-08-27T01:40:08.471Z,14.42
2022-08-27T01:43:12.160Z,14.49
2022-08-27T01:46:15.951Z,14.45
2022-08-27T01:49:18.736Z,14.45
2022-08-27T01:52:26.010Z,14.49
2022-08-27T01:55:28.863Z,14.51
2022-08-27T01:58:33.768Z,14.46
2022-08-27T02:01:36.610Z,14.51
2022-08-27T02:04:40.409Z,14.55
2022-08-27T02:07:43.251Z,14.59
2022-08-27T02:10:48.524Z,14.57
2022-08-27T02:13:51.339Z,14.52
2022-08-27T02:16:55.058Z,14.55
2022-08-27T02:19:58.870Z,14.52
2022-08-27T02:23:02.862Z,14.55
2022-08-27T02:26:05.818Z,14.51
2022-08-27T02:29:09.044Z,14.45
2022-08-27T02:32:17.769Z,14.41
2022-08-27T02:35:33.251Z,14.37
2022-08-27T02:38:36.411Z,14.37
2022-08-27T02:41:39.462Z,14.32
2022-08-27T02:44:43.346Z,14.40
2022-08-27T02:47:47.064Z,14.40
2022-08-27T02:50:50.082Z,14.44
2022-08-27T02:53:53.773Z,14.46
2022-08-27T02:56:56.715Z,14.46
2022-08-27T02:59:59.738Z,14.54
2022-08-27T03:03:02.701Z,14.52
2022-08-27T03:06:05.834Z,14.57
2022-08-27T03:09:10.535Z,14.67
2022-08-27T03:12:13.752Z,14.73
2022-08-27T03:19:02.100Z,14.92
2022-08-27T03:22:06.581Z,15.02
2022-08-27T03:25:10.761Z,15.04
2022-08-27T03:28:23.340Z,15.04
2022-08-27T03:31:28.056Z,15.14
2022-08-27T03:34:31.214Z,15.13
2022-08-27T03:37:35.341Z,15.13
2022-08-27T03:40:38.527Z,15.10
2022-08-27T03:43:41.786Z,15.12
2022-08-27T03:46:44.943Z,15.13
2022-08-27T03:49:47.782Z,15.20
2022-08-27T03:52:51.028Z,15.23
2022-08-27T03:55:53.932Z,15.29
2022-08-27T03:58:57.064Z,15.33
2022-08-27T04:02:02.187Z,15.33
2022-08-27T04:05:06.161Z,15.30
2022-08-27T04:08:13.554Z,15.44
2022-08-27T04:11:16.935Z,15.43
2022-08-27T04:14:26.978Z,15.49
2022-08-27T04:17:32.157Z,15.57
2022-08-27T04:20:36.132Z,15.64
2022-08-27T04:23:40.790Z,15.67
2022-08-27T04:26:47.522Z,15.71
2022-08-27T04:29:54.786Z,15.75
2022-08-27T04:32:58.245Z,15.80
2022-08-27T04:36:10.620Z,15.87
2022-08-27T04:39:15.191Z,15.88
2022-08-27T04:42:20.083Z,15.90
2022-08-27T04:45:23.124Z,15.91
2022-08-27T04:48:26.474Z,15.97
2022-08-27T04:51:30.438Z,16.01
2022-08-27T04:54:34.210Z,16.07
2022-08-27T04:57:38.126Z,16.05
2022-08-27T05:00:48.825Z,16.11
2022-08-27T05:03:52.796Z,16.15
2022-08-27T05:06:56.917Z,16.17
2022-08-27T05:10:00.093Z,16.22
2022-08-27T05:13:03.753Z,16.26
2022-08-27T05:16:08.964Z,16.30
2022-08-27T05:19:16.371Z,16.35
2022-08-27T05:22:19.344Z,16.39
2022-08-27T05:25:23.684Z,16.42
2022-08-27T05:28:29.068Z,16.35
2022-08-27T05:31:33.193Z,16.18
2022-08-27T05:34:36.606Z,16.09
2022-08-27T05:37:39.800Z,16.00
2022-08-27T05:40:44.033Z,15.88
2022-08-27T05:43:50.243Z,15.83
2022-08-27T05:46:54.837Z,15.91
2022-08-27T05:49:58.258Z,16.07
2022-08-27T05:53:01.186Z,16.29
2022-08-27T05:56:04.498Z,16.39
2022-08-27T05:59:27.336Z,16.63
2022-08-27T06:02:30.842Z,16.92
2022-08-27T06:05:33.867Z,17.07
2022-08-27T06:08:38.838Z,16.94
2022-08-27T06:11:41.813Z,16.96
2022-08-27T06:14:44.797Z,17.04
2022-08-27T06:17:47.773Z,17.11
2022-08-27T06:20:50.937Z,17.20
2022-08-27T06:23:54.922Z,17.23
2022-08-27T06:26:57.970Z,17.28
2022-08-27T06:30:00.961Z,17.28
2022-08-27T06:33:04.307Z,17.28
2022-08-27T06:36:10.706Z,17.23
2022-08-27T06:39:17.106Z,17.24
2022-08-27T06:42:20.811Z,17.28
2022-08-27T06:45:29.436Z,17.37
2022-08-27T06:48:32.836Z,17.44
2022-08-27T06:51:38.803Z,17.54
2022-08-27T06:54:41.597Z,17.63
2022-08-27T06:57:45.026Z,17.65
2022-08-27T07:00:49.108Z,17.65
2022-08-27T07:03:54.861Z,17.70
2022-08-27T07:07:04.424Z,17.73
2022-08-27T07:10:08.552Z,17.79
2022-08-27T07:13:11.493Z,18.40
2022-08-27T07:16:22.235Z,18.21
2022-08-27T07:19:28.491Z,18.13
2022-08-27T07:22:33.844Z,18.10
2022-08-27T07:25:36.723Z,18.16
2022-08-27T07:28:41.696Z,18.22
2022-08-27T07:31:44.684Z,18.22
2022-08-27T07:34:47.739Z,18.35
2022-08-27T07:37:51.251Z,18.52
2022-08-27T07:40:54.541Z,18.63
2022-08-27T07:44:16.310Z,18.66
2022-08-27T07:47:19.966Z,18.59
2022-08-27T07:50:24.677Z,18.70
2022-08-27T07:53:28.051Z,18.64
2022-08-27T07:56:31.214Z,18.73
2022-08-27T07:59:34.934Z,18.67
2022-08-27T08:02:39.401Z,18.61
2022-08-27T08:05:43.858Z,18.53
2022-08-27T08:08:47.049Z,18.47
2022-08-27T08:11:54.514Z,18.91
2022-08-27T08:14:58.588Z,18.80
2022-08-27T08:18:02.415Z,18.81
2022-08-27T08:21:08.611Z,18.77
2022-08-27T08:24:11.817Z,18.77
2022-08-27T08:27:14.753Z,18.90
2022-08-27T08:30:18.135Z,18.97
2022-08-27T08:33:22.111Z,19.00
2022-08-27T08:36:25.206Z,19.04
2022-08-27T08:39:28.305Z,19.18
2022-08-27T08:42:45.006Z,19.34
2022-08-27T08:45:55.944Z,19.28
2022-08-27T08:49:32.544Z,19.21
2022-08-27T08:52:35.530Z,19.18
2022-08-27T08:55:42.150Z,19.11
2022-08-27T08:58:56.174Z,19.11
2022-08-27T09:02:00.301Z,19.27
2022-08-27T09:05:05.941Z,19.76
2022-08-27T09:08:34.013Z,19.61
2022-08-27T09:11:52.600Z,19.51
2022-08-27T09:15:09.325Z,19.90
2022-08-27T09:18:17.111Z,19.41
2022-08-27T09:21:35.118Z,19.18
2022-08-27T09:25:06.425Z,19.12
2022-08-27T09:28:38.707Z,19.14
2022-08-27T09:31:47.774Z,19.35
2022-08-27T09:34:52.352Z,19.27
2022-08-27T09:37:57.755Z,19.32
2022-08-27T09:41:19.860Z,19.08
2022-08-27T09:44:23.287Z,19.14
2022-08-27T09:47:27.880Z,19.24
2022-08-27T09:50:32.802Z,19.31
2022-08-27T09:53:39.347Z,19.55
2022-08-27T09:56:51.119Z,19.57
2022-08-27T09:59:55.395Z,19.73
2022-08-27T10:03:00.658Z,20.05
2022-08-27T10:06:04.004Z,20.30
2022-08-27T10:09:09.914Z,20.20
2022-08-27T10:12:41.590Z,21.70
2022-08-27T10:16:15.523Z,23.80
2022-08-27T10:19:43.638Z,23.71
2022-08-27T10:23:16.640Z,23.09
2022-08-27T10:26:40.988Z,22.57
2022-08-27T10:29:56.018Z,23.65
2022-08-27T10:33:14.842Z,25.65
2022-08-27T10:36:26.856Z,24.16
2022-08-27T10:39:57.619Z,22.83
2022-08-27T10:43:41.860Z,21.59
2022-08-27T10:47:00.063Z,21.01
2022-08-27T10:50:08.775Z,21.09
2022-08-27T10:53:23.438Z,21.37
2022-08-27T10:56:31.559Z,21.53
2022-08-27T11:00:06.690Z,21.83
2022-08-27T11:03:16.070Z,22.33
2022-08-27T11:06:49.458Z,24.38
2022-08-27T11:10:21.080Z,25.78
2022-08-27T11:13:35.645Z,24.50
2022-08-27T11:16:49.211Z,23.43
2022-08-27T11:19:59.570Z,22.81
2022-08-27T11:23:16.878Z,22.20
2022-08-27T11:26:20.047Z,21.90
2022-08-27T11:29:32.225Z,22.10
2022-08-27T11:32:45.817Z,22.40
2022-08-27T11:36:27.275Z,22.72
2022-08-27T11:40:06.068Z,23.80
2022-08-27T11:43:18.799Z,24.95
2022-08-27T11:46:25.741Z,25.62
2022-08-27T11:49:54.878Z,26.11
2022-08-27T11:53:00.086Z,26.55
2022-08-27T11:56:40.155Z,26.96
2022-08-27T11:59:44.029Z,28.24
2022-08-27T12:03:10.744Z,26.47
2022-08-27T12:06:26.725Z,24.30
2022-08-27T12:09:42.926Z,24.67
2022-08-27T12:13:12.388Z,27.09
2022-08-27T12:16:35.405Z,28.00
2022-08-27T12:20:10.120Z,28.15
2022-08-27T12:23:32.089Z,28.29
2022-08-27T12:26:38.268Z,28.01
2022-08-27T12:29:53.243Z,28.12
2022-08-27T12:32:59.885Z,28.16
2022-08-27T12:36:35.288Z,25.94
2022-08-27T12:39:43.861Z,24.82
2022-08-27T12:42:47.331Z,25.01
2022-08-27T12:46:01.733Z,24.76
2022-08-27T12:49:36.103Z,24.38
2022-08-27T12:52:56.729Z,24.71
2022-08-27T12:56:23.456Z,24.61
2022-08-27T12:59:45.403Z,25.02
2022-08-27T13:03:22.347Z,24.58
2022-08-27T13:06:37.172Z,24.64
2022-08-27T13:09:40.657Z,24.68
2022-08-27T13:12:46.327Z,24.78
2022-08-27T13:15:56.753Z,25.90
2022-08-27T13:19:00.511Z,26.47
2022-08-27T13:22:06.308Z,26.75
2022-08-27T13:25:31.595Z,26.04
2022-08-27T13:28:37.102Z,25.37
2022-08-27T13:31:41.059Z,24.52
2022-08-27T13:34:44.234Z,24.51
2022-08-27T13:37:57.754Z,24.35
2022-08-27T13:41:07.161Z,24.17
2022-08-27T13:44:20.671Z,23.67
2022-08-27T13:47:26.450Z,23.57
2022-08-27T13:50:32.538Z,23.57
2022-08-27T13:53:55.420Z,23.46
2022-08-27T13:57:10.050Z,23.25
2022-08-27T14:00:32.318Z,23.56
2022-08-27T14:03:45.857Z,23.63
2022-08-27T14:06:49.296Z,23.50
2022-08-27T14:10:02.256Z,23.41
2022-08-27T14:13:25.312Z,23.36
2022-08-27T14:16:34.505Z,23.35
2022-08-27T14:19:40.233Z,23.08
2022-08-27T14:22:44.803Z,22.72
2022-08-27T14:25:49.173Z,22.58
2022-08-27T14:28:55.016Z,22.41
2022-08-27T14:31:57.999Z,22.25
2022-08-27T14:35:01.250Z,22.09
2022-08-27T14:38:11.865Z,21.99
2022-08-27T14:41:16.709Z,21.93
2022-08-27T14:44:25.251Z,21.99
2022-08-27T14:47:32.167Z,22.10
2022-08-27T14:50:38.150Z,22.02
2022-08-27T14:53:42.784Z,21.89
2022-08-27T14:56:46.988Z,21.72
2022-08-27T14:59:53.070Z,21.60
2022-08-27T15:02:59.587Z,21.73
2022-08-27T15:06:06.848Z,21.78
2022-08-27T15:09:12.791Z,21.82
2022-08-27T15:12:26.105Z,21.94
2022-08-27T15:15:30.189Z,22.06
2022-08-27T15:18:34.281Z,22.32
2022-08-27T15:21:40.312Z,22.47
2022-08-27T15:24:56.899Z,22.18
2022-08-27T15:28:00.415Z,22.06
2022-08-27T15:31:04.090Z,21.96
2022-08-27T15:34:07.885Z,21.80
2022-08-27T15:37:11.650Z,21.73
2022-08-27T15:40:17.052Z,21.75
2022-08-27T15:43:20.800Z,21.79
2022-08-27T15:46:26.414Z,21.69
2022-08-27T15:49:30.282Z,21.69
2022-08-27T15:52:41.288Z,21.46
2022-08-27T15:55:45.723Z,21.19
2022-08-27T15:58:49.600Z,21.04
2022-08-27T16:01:53.294Z,20.85
2022-08-27T16:04:56.402Z,20.85
2022-08-27T16:07:59.600Z,20.67
2022-08-27T16:11:03.581Z,20.63
2022-08-27T16:14:08.175Z,20.61
2022-08-27T16:17:12.792Z,20.70
2022-08-27T16:20:16.747Z,20.85
2022-08-27T16:23:20.482Z,21.18
2022-08-27T16:26:23.703Z,21.29
2022-08-27T16:29:27.119Z,21.48
2022-08-27T16:32:31.580Z,21.76
2022-08-27T16:35:34.545Z,22.17
2022-08-27T16:38:38.218Z,22.10
2022-08-27T16:41:42.352Z,22.00
2022-08-27T16:44:45.748Z,21.93
2022-08-27T16:48:08.572Z,21.83
2022-08-27T16:51:22.306Z,21.94
2022-08-27T16:54:27.022Z,21.92
2022-08-27T16:57:30.341Z,21.78
2022-08-27T17:00:33.446Z,21.50
2022-08-27T17:04:06.822Z,21.46
2022-08-27T17:07:06.696Z,21.25
2022-08-27T17:10:11.817Z,21.01
2022-08-27T17:13:18.694Z,20.90
2022-08-27T17:16:25.316Z,20.80
2022-08-27T17:19:28.586Z,20.80
2022-08-27T17:22:31.899Z,20.70
2022-08-27T17:25:34.897Z,20.61
2022-08-27T17:28:40.887Z,20.43
2022-08-27T17:31:44.081Z,20.33
2022-08-27T17:34:47.415Z,20.29
2022-08-27T17:37:50.277Z,20.17
2022-08-27T17:40:54.679Z,20.05
2022-08-27T17:43:59.557Z,19.92
2022-08-27T17:47:04.759Z,19.96
2022-08-27T17:50:09.859Z,19.66
2022-08-27T17:53:13.587Z,19.61
2022-08-27T17:56:18.689Z,19.48
2022-08-27T17:59:21.977Z,19.36
2022-08-27T18:02:36.692Z,19.25
2022-08-27T18:05:40.205Z,19.11
2022-08-27T18:08:43.436Z,19.00
2022-08-27T18:11:46.877Z,18.84
2022-08-27T18:14:54.136Z,18.77
2022-08-27T18:17:58.415Z,18.56
2022-08-27T18:21:02.508Z,18.49
2022-08-27T18:24:06.424Z,18.43
2022-08-27T18:27:10.147Z,18.29
2022-08-27T18:30:13.770Z,18.12
2022-08-27T18:33:16.722Z,17.94
2022-08-27T18:36:20.131Z,17.95
2022-08-27T18:39:25.722Z,17.86
2022-08-27T18:42:29.391Z,17.85
2022-08-27T18:45:34.776Z,17.95
2022-08-27T18:48:38.719Z,17.86
2022-08-27T18:51:48.160Z,17.65
2022-08-27T18:54:54.309Z,17.55
2022-08-27T18:57:57.292Z,17.37
2022-08-27T19:01:02.208Z,17.37
2022-08-27T19:04:05.620Z,17.57
2022-08-27T19:07:09.094Z,17.40
2022-08-27T19:10:13.766Z,17.23
2022-08-27T19:13:18.084Z,17.20
2022-08-27T19:16:24.435Z,17.10
2022-08-27T19:19:28.752Z,17.10
2022-08-27T19:22:32.397Z,17.10
2022-08-27T19:25:36.255Z,17.07
2022-08-27T19:28:40.359Z,17.00
2022-08-27T19:31:43.667Z,17.00
2022-08-27T19:34:47.344Z,16.96
2022-08-27T19:37:52.992Z,16.80
2022-08-27T19:40:57.969Z,16.68
2022-08-27T19:44:01.840Z,16.72
2022-08-27T19:47:04.864Z,16.69
2022-08-27T19:50:09.509Z,16.73
2022-08-27T19:53:13.427Z,16.73
2022-08-27T19:56:19.700Z,16.69
2022-08-27T19:59:24.502Z,16.69
2022-08-27T20:02:30.094Z,16.68
2022-08-27T20:05:35.863Z,16.63
2022-08-27T20:08:40.282Z,16.58
2022-08-27T20:11:46.549Z,16.53
2022-08-27T20:14:53.962Z,16.52
2022-08-27T20:18:00.536Z,16.45
2022-08-27T20:21:05.987Z,16.32
2022-08-27T20:24:10.784Z,16.28
2022-08-27T20:27:16.372Z,16.24
2022-08-27T20:30:22.989Z,16.14
2022-08-27T20:33:28.266Z,16.02
2022-08-27T20:36:34.680Z,16.05
2022-08-27T20:39:40.864Z,16.01
2022-08-27T20:42:46.134Z,16.08
2022-08-27T20:45:51.613Z,15.98
2022-08-27T20:48:57.170Z,15.98
2022-08-27T20:55:09.240Z,16.53
2022-08-27T20:58:32.977Z,16.24
2022-08-27T21:01:36.398Z,16.18
2022-08-27T21:04:46.891Z,16.07
2022-08-27T21:07:51.287Z,16.19
2022-08-27T21:10:58.958Z,16.33
2022-08-27T21:14:08.235Z,16.29
2022-08-27T21:17:16.546Z,16.17
2022-08-27T21:20:20.657Z,16.24
2022-08-27T21:23:29.511Z,16.24
2022-08-27T21:26:34.546Z,16.36
2022-08-27T21:29:38.855Z,16.32
2022-08-27T21:32:42.568Z,16.35
2022-08-27T21:35:46.560Z,16.29
2022-08-27T21:38:50.366Z,16.29
2022-08-27T21:41:54.007Z,16.24
2022-08-27T21:44:57.550Z,16.22
2022-08-27T21:48:02.180Z,16.15
2022-08-27T21:51:10.890Z,16.22
2022-08-27T21:54:15.779Z,16.18
2022-08-27T21:57:20.085Z,16.14
2022-08-27T22:00:30.409Z,16.09
2022-08-27T22:03:36.233Z,16.04
2022-08-27T22:06:39.438Z,16.07
2022-08-27T22:09:42.712Z,16.07
2022-08-27T22:12:45.925Z,16.11
2022-08-27T22:15:50.379Z,16.12
2022-08-27T22:18:56.868Z,16.01
2022-08-27T22:22:00.161Z,16.02
2022-08-27T22:25:04.696Z,16.00
2022-08-27T22:28:08.019Z,15.88
2022-08-27T22:31:11.795Z,15.87
2022-08-27T22:34:15.114Z,15.78
2022-08-27T22:37:19.876Z,15.73
2022-08-27T22:40:26.397Z,15.67
2022-08-27T22:43:32.458Z,15.67
2022-08-27T22:46:36.033Z,15.77
2022-08-27T22:49:39.360Z,15.71
2022-08-27T22:52:42.671Z,15.71
2022-08-27T22:55:49.931Z,15.64
2022-08-27T22:58:53.468Z,15.66
2022-08-27T23:01:57.648Z,15.73
2022-08-27T23:05:03.580Z,15.68
2022-08-27T23:08:11.755Z,15.67
2022-08-27T23:11:16.162Z,15.56
2022-08-27T23:14:19.589Z,15.40
2022-08-27T23:17:23.961Z,15.33
2022-08-27T23:20:30.135Z,15.20
2022-08-27T23:23:34.390Z,15.09
2022-08-27T23:27:01.189Z,14.91
2022-08-27T23:30:05.187Z,14.99
2022-08-27T23:33:08.431Z,14.91
2022-08-27T23:36:11.945Z,14.83
2022-08-27T23:39:15.821Z,14.78
2022-08-27T23:42:18.863Z,14.71
2022-08-27T23:45:26.055Z,14.72
2022-08-27T23:48:29.218Z,14.79
2022-08-27T23:51:32.772Z,14.75
2022-08-27T23:54:36.579Z,14.76
2022-08-27T23:57:40.081Z,14.79
